Time;durP1;ratioP1;P1;durP2;ratioP2;P2;SDS_P1;SDS_P2;PMS_P1;PMS_P2;Temp;Humidity;BMP_temperature;BMP_pressure;BME280_temperature;BME280_humidity;BME280_pressure;Samples;Min_cycle;Max_cycle;Signal;HPM_P1;HPM_P2
2022/06/20 03:00:36;;;;;;;5.05;3.58;;;32.20;40.10;;;;;;5998748;23;46685;31
2022/06/20 03:03:05;;;;;;;5.03;3.50;;;32.20;39.80;;;;;;4866559;29;45550;-63
2022/06/20 03:05:31;;;;;;;6.82;3.60;;;32.10;39.80;;;;;;4868067;29;45263;-63
2022/06/20 03:07:57;;;;;;;6.00;3.67;;;32.00;40.50;;;;;;4843051;28;44741;-62
2022/06/20 03:10:33;;;;;;;9.80;3.80;;;32.00;40.00;;;;;;4891353;28;47065;-62
2022/06/20 03:12:59;;;;;;;7.18;3.45;;;32.00;40.10;;;;;;4872539;28;45392;-63
2022/06/20 03:15:25;;;;;;;6.78;4.00;;;31.90;40.00;;;;;;4877659;28;45328;-61
2022/06/20 03:17:50;;;;;;;10.38;4.28;;;31.90;40.00;;;;;;4877062;29;44887;-62
2022/06/20 03:20:17;;;;;;;7.07;4.28;;;31.90;40.10;;;;;;4877816;28;46306;-61
2022/06/20 03:22:49;;;;;;;8.98;4.07;;;31.90;40.00;;;;;;4859055;28;45327;-61
2022/06/20 03:25:15;;;;;;;7.37;4.17;;;31.90;40.00;;;;;;4864788;29;45578;-61
2022/06/20 03:27:40;;;;;;;6.07;3.53;;;31.90;39.90;;;;;;4862046;28;45477;-62
2022/06/20 03:30:26;;;;;;;4.40;3.42;;;31.90;40.00;;;;;;4891565;28;46284;-63
2022/06/20 03:32:52;;;;;;;8.20;3.50;;;31.80;40.00;;;;;;4880210;28;45036;-61
2022/06/20 03:35:18;;;;;;;7.28;4.03;;;31.80;40.10;;;;;;4880317;29;45287;-61
2022/06/20 03:37:43;;;;;;;9.35;3.78;;;31.70;40.10;;;;;;4892869;28;45884;-62
2022/06/20 03:40:09;;;;;;;7.13;3.60;;;31.70;40.10;;;;;;4866984;28;47207;-62
2022/06/20 03:42:35;;;;;;;6.40;3.80;;;31.70;40.10;;;;;;4893268;28;45426;-61
2022/06/20 03:45:02;;;;;;;7.57;3.78;;;31.70;40.10;;;;;;4881232;28;45220;-63
2022/06/20 03:47:32;;;;;;;8.52;3.72;;;31.60;40.20;;;;;;4878208;28;45327;-62
2022/06/20 03:49:59;;;;;;;10.10;4.03;;;31.50;40.30;;;;;;4892920;28;46239;-61
2022/06/20 03:52:30;;;;;;;5.97;3.03;;;31.40;40.50;;;;;;4894438;28;45205;-61
2022/06/20 03:55:06;;;;;;;11.10;4.00;;;31.40;40.60;;;;;;4883882;28;45205;-61
2022/06/20 03:57:46;;;;;;;7.88;3.70;;;31.30;40.70;;;;;;4897203;28;45654;-62
2022/06/20 04:00:17;;;;;;;6.55;3.90;;;31.30;40.80;;;;;;4894712;28;46962;-62
2022/06/20 04:03:20;;;;;;;9.23;3.70;;;31.30;40.70;;;;;;4887803;28;45659;-62
2022/06/20 04:06:25;;;;;;;16.27;4.32;;;31.30;41.40;;;;;;4836082;29;45494;-62
2022/06/20 04:11:55;;;;;;;8.23;3.40;;;31.40;40.60;;;;;;4870369;28;46472;-62
2022/06/20 04:14:25;;;;;;;10.25;3.63;;;31.30;40.70;;;;;;4882270;28;45310;-62
2022/06/20 04:16:54;;;;;;;10.93;3.50;;;31.30;40.90;;;;;;4863471;28;45342;-62
2022/06/20 04:19:27;;;;;;;7.53;3.78;;;31.20;41.10;;;;;;4893585;28;45185;-62
2022/06/20 04:21:56;;;;;;;7.40;3.65;;;31.10;41.20;;;;;;4862430;28;46545;-61
2022/06/20 04:24:34;;;;;;;10.98;3.95;;;31.10;41.20;;;;;;4870433;28;45275;-61
2022/06/20 04:27:28;;;;;;;7.35;3.97;;;31.10;41.30;;;;;;4898982;28;45536;-61
2022/06/20 04:30:01;;;;;;;7.53;3.58;;;31.10;41.60;;;;;;4897865;28;45504;-60
2022/06/20 04:32:48;;;;;;;8.55;4.00;;;31.10;41.40;;;;;;4868683;28;46068;-61
2022/06/20 04:35:23;;;;;;;7.32;3.97;;;31.10;41.60;;;;;;4866298;28;45371;-62
2022/06/20 04:37:57;;;;;;;8.88;4.30;;;31.00;41.50;;;;;;4882916;28;45696;-63
2022/06/20 04:40:27;;;;;;;7.00;3.65;;;31.00;41.50;;;;;;4863722;28;45300;-62
2022/06/20 04:42:55;;;;;;;6.88;3.38;;;30.90;41.80;;;;;;4897491;28;46584;-61
2022/06/20 04:45:35;;;;;;;10.32;4.05;;;30.90;41.80;;;;;;4879069;28;45296;-63
2022/06/20 04:48:09;;;;;;;12.50;3.67;;;30.90;42.10;;;;;;4866763;28;45539;-63
2022/06/20 04:50:35;;;;;;;12.23;4.28;;;30.80;42.30;;;;;;4891060;28;44981;-63
2022/06/20 04:53:06;;;;;;;9.30;4.07;;;30.80;42.20;;;;;;4864956;28;46481;-62
2022/06/20 04:55:32;;;;;;;9.07;3.72;;;30.70;42.40;;;;;;4866579;28;46190;-63
2022/06/20 04:57:59;;;;;;;7.53;3.67;;;30.70;42.30;;;;;;4868770;28;45375;-62
2022/06/20 05:00:29;;;;;;;11.05;3.33;;;30.60;42.40;;;;;;4857545;28;45303;-61
2022/06/20 05:02:55;;;;;;;11.63;3.50;;;30.60;42.60;;;;;;4855746;29;45593;-61
2022/06/20 05:05:23;;;;;;;11.82;4.10;;;30.50;42.70;;;;;;4870397;28;45511;-62
2022/06/20 05:07:49;;;;;;;11.20;3.70;;;30.50;42.70;;;;;;4868249;28;45669;-63
2022/06/20 05:10:19;;;;;;;11.80;4.00;;;30.40;42.70;;;;;;4854170;28;45554;-63
2022/06/20 05:13:09;;;;;;;7.97;3.60;;;30.40;42.90;;;;;;4854592;28;45479;-62
2022/06/20 05:15:42;;;;;;;12.65;4.03;;;30.30;43.20;;;;;;4871389;28;45408;-62
2022/06/20 05:18:32;;;;;;;5.40;3.35;;;30.30;43.20;;;;;;4885234;28;45626;-63
2022/06/20 05:21:03;;;;;;;7.75;3.58;;;30.20;43.80;;;;;;4853221;28;45839;-64
2022/06/20 05:23:33;;;;;;;7.15;3.22;;;30.10;43.40;;;;;;4854037;28;47774;-63
2022/06/20 05:26:00;;;;;;;7.97;3.35;;;30.10;43.60;;;;;;4857415;28;45231;-62
2022/06/20 05:28:25;;;;;;;12.50;3.38;;;30.10;43.50;;;;;;4889898;28;45298;-62
2022/06/20 05:30:51;;;;;;;5.95;3.33;;;30.00;43.50;;;;;;4874358;29;45490;-62
2022/06/20 05:33:22;;;;;;;10.30;3.95;;;29.90;43.60;;;;;;4893310;28;46448;-62
2022/06/20 05:35:50;;;;;;;7.60;3.88;;;30.00;43.60;;;;;;4875849;28;45668;-62
2022/06/20 05:38:44;;;;;;;7.90;4.35;;;29.90;43.40;;;;;;4876765;28;45376;-63
2022/06/20 05:41:12;;;;;;;11.68;3.83;;;30.00;43.80;;;;;;4893228;28;45651;-62
2022/06/20 05:43:38;;;;;;;7.82;3.55;;;29.90;43.60;;;;;;4891878;28;45919;-61
2022/06/20 05:46:10;;;;;;;7.95;3.25;;;29.90;43.60;;;;;;4892963;28;45073;-60
2022/06/20 05:48:36;;;;;;;10.45;3.58;;;29.90;43.80;;;;;;4863839;28;45205;-58
2022/06/20 05:51:04;;;;;;;8.75;3.33;;;29.90;43.60;;;;;;4880438;28;45001;-60
2022/06/20 05:53:38;;;;;;;6.05;3.83;;;29.90;43.60;;;;;;4878463;28;46144;-61
2022/06/20 05:56:10;;;;;;;13.50;3.50;;;29.90;43.70;;;;;;4859516;29;45499;-62
2022/06/20 05:58:36;;;;;;;9.37;3.87;;;29.90;43.50;;;;;;4864657;28;45488;-58
2022/06/20 06:01:03;;;;;;;14.27;4.00;;;29.90;43.50;;;;;;4877576;28;45218;-60
2022/06/20 06:03:49;;;;;;;9.07;3.67;;;29.90;43.60;;;;;;4877491;28;46178;-59
2022/06/20 06:06:23;;;;;;;12.90;4.20;;;29.90;43.80;;;;;;4888688;28;45425;-64
2022/06/20 06:08:58;;;;;;;7.18;3.40;;;29.80;43.90;;;;;;4867775;28;45239;-62
2022/06/20 06:12:02;;;;;;;7.95;3.50;;;29.80;43.90;;;;;;4862636;29;45266;-62
2022/06/20 06:14:30;;;;;;;7.38;3.35;;;29.80;44.20;;;;;;4857910;28;46099;-61
2022/06/20 06:17:19;;;;;;;11.05;3.63;;;29.80;43.70;;;;;;4898538;28;45369;-60
2022/06/20 06:19:53;;;;;;;4.45;2.92;;;29.80;44.10;;;;;;4900369;28;45247;-62
2022/06/20 06:22:24;;;;;;;7.93;3.33;;;29.80;44.00;;;;;;4857857;29;45169;-67
2022/06/20 06:24:56;;;;;;;9.85;3.15;;;29.70;43.60;;;;;;4874676;28;46156;-61
2022/06/20 06:27:24;;;;;;;7.70;2.70;;;29.80;43.70;;;;;;4896928;28;45328;-64
2022/06/20 06:29:51;;;;;;;7.05;2.90;;;29.80;43.60;;;;;;4879379;28;45274;-58
2022/06/20 06:32:23;;;;;;;6.93;2.70;;;29.80;44.10;;;;;;4895296;28;45386;-61
2022/06/20 06:35:09;;;;;;;8.73;3.28;;;29.80;43.40;;;;;;4864303;29;46231;-62
2022/06/20 06:37:49;;;;;;;10.43;2.95;;;29.80;43.70;;;;;;4893411;28;45555;-64
2022/06/20 06:40:26;;;;;;;8.63;2.60;;;29.70;44.00;;;;;;4894857;28;45304;-59
2022/06/20 06:42:55;;;;;;;8.80;2.90;;;29.70;43.80;;;;;;4873683;29;44988;-60
2022/06/20 06:45:23;;;;;;;9.63;2.95;;;29.70;43.90;;;;;;4876894;28;46775;-56
2022/06/20 06:47:56;;;;;;;5.70;3.05;;;29.70;44.30;;;;;;4899230;28;45208;-60
2022/06/20 06:50:27;;;;;;;8.25;2.90;;;29.70;44.20;;;;;;4872594;28;45583;-63
2022/06/20 06:53:35;;;;;;;8.55;3.45;;;29.80;44.30;;;;;;4899636;28;45338;-59
2022/06/20 06:56:22;;;;;;;8.93;3.05;;;29.80;45.00;;;;;;4902631;28;47216;-62
2022/06/20 06:58:58;;;;;;;6.53;2.80;;;29.70;45.10;;;;;;4905189;28;45579;-62
2022/06/20 07:01:32;;;;;;;3.72;2.28;;;29.80;45.10;;;;;;4881161;28;45362;-58
2022/06/20 07:04:02;;;;;;;5.25;2.90;;;29.80;44.70;;;;;;4884371;28;45285;-63
2022/06/20 07:06:35;;;;;;;10.93;3.28;;;29.80;44.90;;;;;;4867674;28;45318;-61
2022/06/20 07:09:08;;;;;;;7.43;3.13;;;29.80;44.90;;;;;;4870904;29;45648;-61
2022/06/20 07:11:34;;;;;;;6.60;2.92;;;29.80;45.00;;;;;;4880157;28;45443;-62
2022/06/20 07:14:01;;;;;;;8.38;3.25;;;29.80;44.90;;;;;;4870938;28;45586;-56
2022/06/20 07:16:50;;;;;;;10.10;3.17;;;29.80;45.00;;;;;;4886162;28;46262;-67
2022/06/20 07:19:15;;;;;;;7.82;2.85;;;29.80;45.80;;;;;;4864092;28;45349;-59
2022/06/20 07:21:41;;;;;;;5.80;2.88;;;29.80;45.20;;;;;;4898566;28;45245;-61
2022/06/20 07:24:12;;;;;;;8.60;3.55;;;29.70;45.30;;;;;;4866194;28;45048;-61
2022/06/20 07:26:56;;;;;;;6.93;3.10;;;29.60;45.40;;;;;;4881052;28;47238;-58
2022/06/20 07:29:44;;;;;;;8.43;3.05;;;29.60;45.70;;;;;;4885493;28;45593;-60
2022/06/20 07:32:11;;;;;;;12.07;4.18;;;29.60;45.90;;;;;;4899213;28;44792;-64
2022/06/20 07:34:46;;;;;;;8.57;2.95;;;29.60;45.40;;;;;;4895075;28;45811;-60
2022/06/20 07:37:17;;;;;;;4.70;2.92;;;29.50;45.50;;;;;;4908735;28;46879;-59
2022/06/20 07:40:05;;;;;;;7.18;2.80;;;29.50;45.70;;;;;;4848905;29;45549;-57
2022/06/20 07:42:51;;;;;;;6.38;3.00;;;29.50;46.20;;;;;;4894123;28;45289;-61
2022/06/20 07:45:28;;;;;;;7.55;3.03;;;29.50;46.40;;;;;;4884996;28;45539;-63
2022/06/20 07:47:56;;;;;;;5.43;2.65;;;29.50;45.90;;;;;;4901720;28;45636;-62
2022/06/20 07:50:42;;;;;;;6.80;2.95;;;29.50;45.80;;;;;;4881565;28;45407;-59
2022/06/20 07:53:16;;;;;;;7.38;2.83;;;29.60;46.60;;;;;;4887510;28;45318;-59
2022/06/20 07:55:49;;;;;;;8.93;2.90;;;29.60;45.90;;;;;;4902781;28;45441;-58
2022/06/20 07:58:17;;;;;;;7.73;2.67;;;29.50;46.10;;;;;;4880496;28;45723;-60
2022/06/20 08:00:45;;;;;;;9.57;3.10;;;29.60;46.10;;;;;;4882932;28;45661;-60
2022/06/20 08:03:18;;;;;;;7.82;3.78;;;29.50;46.10;;;;;;4864079;28;44855;-59
2022/06/20 08:05:58;;;;;;;8.63;3.72;;;29.40;46.60;;;;;;4890225;28;45307;-62
2022/06/20 08:08:38;;;;;;;11.38;3.70;;;29.30;46.70;;;;;;4864337;28;46241;-58
2022/06/20 08:11:12;;;;;;;7.72;3.55;;;29.20;46.80;;;;;;4900639;28;44961;-59
2022/06/20 08:13:50;;;;;;;7.78;2.92;;;29.10;46.80;;;;;;4901515;28;45483;-60
2022/06/20 08:16:19;;;;;;;9.93;3.38;;;29.10;46.70;;;;;;4899642;28;45004;-58
2022/06/20 08:18:45;;;;;;;6.68;3.15;;;29.10;46.70;;;;;;4864869;29;46003;-61
2022/06/20 08:21:18;;;;;;;10.45;3.75;;;29.10;46.50;;;;;;4864637;28;45302;-59
2022/06/20 08:23:48;;;;;;;7.78;3.38;;;29.10;46.50;;;;;;4897860;28;45051;-59
2022/06/20 08:26:21;;;;;;;6.90;3.30;;;29.10;46.40;;;;;;4881198;28;45538;-58
2022/06/20 08:29:08;;;;;;;6.30;3.50;;;29.00;46.50;;;;;;4879572;29;45317;-62
2022/06/20 08:31:40;;;;;;;9.02;3.40;;;29.00;46.80;;;;;;4858602;29;45556;-60
2022/06/20 08:34:16;;;;;;;9.00;3.25;;;29.00;46.60;;;;;;4877732;29;45179;-61
2022/06/20 08:36:47;;;;;;;7.07;3.30;;;29.00;46.70;;;;;;4881165;28;46182;-63
2022/06/20 08:39:34;;;;;;;7.22;3.17;;;29.00;46.60;;;;;;4882887;28;46647;-62
2022/06/20 08:42:08;;;;;;;8.63;3.20;;;29.00;46.60;;;;;;4895910;28;44718;-64
2022/06/20 08:44:40;;;;;;;4.43;2.80;;;28.90;46.40;;;;;;4882490;28;45095;-60
2022/06/20 08:47:43;;;;;;;8.30;3.03;;;28.90;46.10;;;;;;4897015;28;45731;-59
2022/06/20 08:50:36;;;;;;;12.45;3.67;;;29.00;46.10;;;;;;4896471;28;46076;-58
2022/06/20 08:53:26;;;;;;;10.57;3.38;;;28.90;45.80;;;;;;4883498;28;45484;-58
2022/06/20 08:56:02;;;;;;;9.68;3.47;;;28.90;45.80;;;;;;4881653;28;45536;-59
2022/06/20 08:58:38;;;;;;;9.43;3.35;;;28.90;45.70;;;;;;4879277;28;45316;-60
2022/06/20 09:01:13;;;;;;;8.43;3.15;;;28.90;45.80;;;;;;4863684;28;46185;-60
2022/06/20 09:03:54;;;;;;;6.88;3.20;;;28.90;45.80;;;;;;4900829;28;45330;-61
2022/06/20 09:06:42;;;;;;;6.55;3.50;;;29.00;45.80;;;;;;4880044;28;45281;-57
2022/06/20 09:09:30;;;;;;;8.10;3.20;;;29.00;45.70;;;;;;4863797;28;45417;-61
2022/06/20 09:12:11;;;;;;;8.85;2.90;;;29.00;45.50;;;;;;4887568;28;47112;-58
2022/06/20 09:14:48;;;;;;;9.35;3.10;;;29.00;45.50;;;;;;4898312;28;46124;-63
2022/06/20 09:17:32;;;;;;;13.27;3.78;;;29.00;45.50;;;;;;4888012;28;45397;-62
2022/06/20 09:20:12;;;;;;;6.97;3.33;;;29.00;45.50;;;;;;4894779;28;45463;-63
2022/06/20 09:22:50;;;;;;;10.88;3.10;;;29.00;45.30;;;;;;4895137;28;47424;-63
2022/06/20 09:25:35;;;;;;;11.75;3.55;;;29.10;45.20;;;;;;4895918;28;45495;-61
2022/06/20 09:28:04;;;;;;;12.45;3.90;;;29.00;45.00;;;;;;4897946;28;45383;-60
2022/06/20 09:30:43;;;;;;;8.35;3.53;;;29.10;45.00;;;;;;4887673;28;45203;-63
2022/06/20 09:33:23;;;;;;;10.32;3.60;;;29.10;44.80;;;;;;4865064;28;45501;-65
2022/06/20 09:36:12;;;;;;;9.35;3.40;;;29.20;44.90;;;;;;4894618;28;45182;-63
2022/06/20 09:39:16;;;;;;;11.50;3.55;;;29.20;44.70;;;;;;4881249;28;45031;-59
2022/06/20 09:41:49;;;;;;;11.57;3.95;;;29.20;44.70;;;;;;4855289;28;45490;-59
2022/06/20 09:44:30;;;;;;;11.50;3.80;;;29.20;44.70;;;;;;4886914;28;46861;-62
2022/06/20 09:47:23;;;;;;;7.22;3.17;;;29.20;44.40;;;;;;4861887;29;45479;-59
2022/06/20 09:50:12;;;;;;;6.60;3.05;;;29.30;44.50;;;;;;4876643;28;44684;-65
2022/06/20 09:53:11;;;;;;;9.05;3.15;;;29.30;44.30;;;;;;4894247;28;45677;-61
2022/06/20 09:56:18;;;;;;;7.00;2.40;;;29.30;44.20;;;;;;4881877;28;46247;-65
2022/06/20 09:59:11;;;;;;;7.85;3.35;;;29.30;44.20;;;;;;4872527;28;45510;-62
2022/06/20 10:01:38;;;;;;;;;;;29.40;44.20;;;;;;4895563;28;45151;-64
2022/06/20 10:04:09;;;;;;;21.48;3.78;;;29.40;44.20;;;;;;4882138;28;45134;-61
2022/06/20 10:06:56;;;;;;;5.60;2.85;;;29.40;44.00;;;;;;4880703;28;46708;-61
2022/06/20 10:09:29;;;;;;;7.47;2.90;;;29.50;43.80;;;;;;4901507;28;45878;-61
2022/06/20 10:12:15;;;;;;;7.10;2.67;;;29.50;43.70;;;;;;4854541;28;47619;-66
2022/06/20 10:14:43;;;;;;;5.55;2.83;;;29.60;43.30;;;;;;4902307;28;45503;-59
2022/06/20 10:17:44;;;;;;;8.27;2.63;;;29.60;43.20;;;;;;4902591;28;45927;-69
2022/06/20 10:20:47;;;;;;;5.78;1.98;;;29.80;42.60;;;;;;4898330;28;44701;-61
2022/06/20 10:23:33;;;;;;;5.75;2.30;;;29.80;42.20;;;;;;4896857;28;45500;-58
2022/06/20 10:25:59;;;;;;;5.47;2.20;;;29.90;41.70;;;;;;4895852;28;45636;-63
2022/06/20 10:28:42;;;;;;;5.55;2.10;;;29.90;42.10;;;;;;4893211;28;45278;-58
2022/06/20 10:31:16;;;;;;;9.35;1.85;;;30.00;41.80;;;;;;4894389;28;45322;-60
2022/06/20 10:34:06;;;;;;;7.97;2.58;;;30.00;41.80;;;;;;4879073;28;44672;-59
2022/06/20 10:37:03;;;;;;;7.35;2.03;;;30.00;41.30;;;;;;4861602;28;45544;-58
2022/06/20 10:39:42;;;;;;;3.03;1.67;;;30.10;41.00;;;;;;4878559;29;46312;-60
2022/06/20 10:42:30;;;;;;;5.35;2.30;;;30.10;40.80;;;;;;4893404;29;46148;-59
2022/06/20 10:45:31;;;;;;;6.22;2.22;;;30.20;40.60;;;;;;4889772;29;45297;-62
2022/06/20 10:48:28;;;;;;;3.05;1.80;;;30.20;40.60;;;;;;4894749;28;46254;-59
2022/06/20 10:51:11;;;;;;;4.65;1.95;;;30.20;40.60;;;;;;4890959;29;46496;-63
2022/06/20 10:53:40;;;;;;;5.88;2.30;;;30.30;41.00;;;;;;4895569;28;45350;-61
2022/06/20 10:56:09;;;;;;;3.85;2.08;;;30.30;40.80;;;;;;4896948;28;45195;-61
2022/06/20 10:58:43;;;;;;;3.28;1.60;;;30.30;40.80;;;;;;4880030;28;45700;-58
2022/06/20 11:01:44;;;;;;;10.30;2.10;;;30.30;40.60;;;;;;4896660;28;46116;-60
2022/06/20 11:04:19;;;;;;;4.80;1.80;;;30.40;40.20;;;;;;4899629;28;44595;-59
2022/06/20 11:07:09;;;;;;;4.43;2.17;;;30.40;40.60;;;;;;4896820;28;45389;-60
2022/06/20 11:09:47;;;;;;;7.78;1.65;;;30.50;40.60;;;;;;4884600;28;45293;-60
2022/06/20 11:12:22;;;;;;;4.88;2.00;;;30.50;40.40;;;;;;4877478;28;45897;-58
2022/06/20 11:15:23;;;;;;;8.48;2.22;;;30.50;40.40;;;;;;4891256;28;45182;-59
2022/06/20 11:18:03;;;;;;;7.53;2.00;;;30.50;40.40;;;;;;4872292;28;44700;-60
2022/06/20 11:20:43;;;;;;;4.25;1.98;;;30.50;40.50;;;;;;4873948;29;45191;-57
2022/06/20 11:23:17;;;;;;;7.72;1.90;;;30.60;40.50;;;;;;4891895;28;44885;-61
2022/06/20 11:26:05;;;;;;;10.60;2.35;;;30.50;40.30;;;;;;4887889;28;45261;-59
2022/06/20 11:28:50;;;;;;;6.57;2.30;;;30.60;40.30;;;;;;4892059;28;45394;-58
2022/06/20 11:31:25;;;;;;;6.90;1.95;;;30.50;40.50;;;;;;4894593;28;45363;-60
2022/06/20 11:34:17;;;;;;;4.80;1.88;;;30.60;40.30;;;;;;4877633;29;46096;-63
2022/06/20 11:37:05;;;;;;;7.55;1.85;;;30.60;40.00;;;;;;4892698;29;45317;-59
2022/06/20 11:39:52;;;;;;;5.68;2.00;;;30.60;40.20;;;;;;4892997;28;45699;-61
2022/06/20 11:42:45;;;;;;;5.03;2.08;;;30.60;40.00;;;;;;4895320;28;45435;-59
2022/06/20 11:45:21;;;;;;;13.38;2.28;;;30.60;39.80;;;;;;4865773;29;45973;-58
2022/06/20 11:47:49;;;;;;;5.18;1.92;;;30.70;40.00;;;;;;4897841;28;45307;-58
2022/06/20 11:50:31;;;;;;;6.55;2.33;;;30.60;40.10;;;;;;4882071;28;45183;-56
2022/06/20 11:53:16;;;;;;;7.47;2.55;;;30.60;39.80;;;;;;4879759;28;45552;-59
2022/06/20 11:55:50;;;;;;;8.65;2.05;;;30.60;40.20;;;;;;4883828;28;46902;-60
2022/06/20 11:58:53;;;;;;;6.47;2.38;;;30.60;39.90;;;;;;4881849;28;45536;-59
2022/06/20 12:01:25;;;;;;;4.35;1.95;;;30.70;39.80;;;;;;4895928;28;45592;-57
2022/06/20 12:04:17;;;;;;;7.28;2.28;;;30.60;39.80;;;;;;4894829;28;45045;-58
2022/06/20 12:06:51;;;;;;;11.45;1.80;;;30.50;39.70;;;;;;4897770;28;45379;-59
2022/06/20 12:09:37;;;;;;;9.80;2.10;;;30.50;40.00;;;;;;4878319;28;45578;-58
2022/06/20 12:12:27;;;;;;;3.38;1.40;;;30.40;39.70;;;;;;4900370;28;45549;-56
2022/06/20 12:15:22;;;;;;;9.88;1.65;;;30.40;39.80;;;;;;4893550;28;45546;-59
2022/06/20 12:17:51;;;;;;;4.70;1.23;;;30.30;39.90;;;;;;4898142;28;47039;-55
2022/06/20 12:23:18;;;;;;;8.30;1.35;;;30.20;40.00;;;;;;4890770;28;45689;-61
2022/06/20 12:25:47;;;;;;;5.68;1.35;;;30.20;40.30;;;;;;4866533;28;46178;-57
2022/06/20 12:28:24;;;;;;;6.25;1.30;;;30.20;40.30;;;;;;4882836;28;45583;-58
2022/06/20 12:30:55;;;;;;;5.88;1.20;;;30.20;40.30;;;;;;4863381;28;45393;-58
2022/06/20 12:33:21;;;;;;;5.07;1.00;;;30.20;40.30;;;;;;4900500;28;44943;-59
2022/06/20 12:35:55;;;;;;;2.70;1.20;;;30.20;40.40;;;;;;4864797;28;46072;-60
2022/06/20 12:38:40;;;;;;;5.95;1.27;;;30.10;40.30;;;;;;4905417;28;45496;-58
2022/06/20 12:41:10;;;;;;;5.63;1.38;;;30.10;40.30;;;;;;4884534;29;45237;-58
2022/06/20 12:43:41;;;;;;;6.45;1.60;;;30.10;40.40;;;;;;4865932;28;45255;-60
2022/06/20 12:46:13;;;;;;;5.97;1.83;;;30.10;40.40;;;;;;4879728;28;45450;-61
2022/06/20 12:49:13;;;;;;;6.78;1.80;;;30.10;40.50;;;;;;4895868;28;45311;-58
2022/06/20 12:51:55;;;;;;;4.13;1.80;;;30.00;40.50;;;;;;4893017;28;45470;-58
2022/06/20 12:54:46;;;;;;;8.95;1.85;;;30.00;40.60;;;;;;4877037;29;45368;-59
2022/06/20 12:57:27;;;;;;;5.72;1.40;;;30.00;40.70;;;;;;4897454;28;44778;-61
2022/06/20 13:00:30;;;;;;;3.90;1.20;;;29.90;40.80;;;;;;4892286;28;45596;-61
2022/06/20 13:03:11;;;;;;;4.45;1.27;;;29.90;40.90;;;;;;4890986;28;44855;-59
2022/06/20 13:05:39;;;;;;;5.13;1.40;;;29.80;40.90;;;;;;4894937;28;45219;-59
2022/06/20 13:08:27;;;;;;;3.20;1.13;;;29.80;41.00;;;;;;4893702;28;45678;-60
2022/06/20 13:11:22;;;;;;;6.38;1.50;;;29.80;41.30;;;;;;4891013;28;46227;-59
2022/06/20 13:14:19;;;;;;;4.45;1.40;;;29.70;41.20;;;;;;4849766;29;47827;-58
2022/06/20 13:17:00;;;;;;;5.88;1.35;;;29.70;41.40;;;;;;4891256;28;45311;-61
2022/06/20 13:19:38;;;;;;;3.35;1.20;;;29.70;41.40;;;;;;4891883;28;45357;-61
2022/06/20 13:22:27;;;;;;;7.95;1.30;;;29.70;42.10;;;;;;4896886;28;47006;-58
2022/06/20 13:25:01;;;;;;;4.13;1.15;;;29.60;41.50;;;;;;4894984;28;45877;-59
2022/06/20 13:27:50;;;;;;;1.83;1.20;;;29.60;41.60;;;;;;4877588;28;45404;-58
2022/06/20 13:30:55;;;;;;;4.63;1.08;;;29.60;41.70;;;;;;4892896;28;45193;-60
2022/06/20 13:33:34;;;;;;;2.47;0.88;;;29.60;41.80;;;;;;4891569;28;45131;-60
2022/06/20 13:36:02;;;;;;;3.40;1.10;;;29.60;41.80;;;;;;4897165;28;45563;-60
2022/06/20 13:38:49;;;;;;;4.25;1.10;;;29.50;41.80;;;;;;4878842;29;45426;-58
2022/06/20 13:41:43;;;;;;;3.78;1.08;;;29.60;42.00;;;;;;4873744;28;45475;-59
2022/06/20 13:44:46;;;;;;;6.10;1.10;;;29.50;42.00;;;;;;4891803;28;46035;-59
2022/06/20 13:47:26;;;;;;;3.95;1.05;;;29.40;42.00;;;;;;4890498;28;44870;-60
2022/06/20 13:50:14;;;;;;;5.05;1.00;;;29.40;42.00;;;;;;4891297;28;44839;-59
2022/06/20 13:52:54;;;;;;;2.10;1.00;;;29.30;41.90;;;;;;4881114;28;45155;-61
2022/06/20 13:55:25;;;;;;;4.97;1.23;;;29.30;41.90;;;;;;4878902;28;46530;-59
2022/06/20 13:58:21;;;;;;;2.40;1.00;;;29.30;41.90;;;;;;4877425;29;45223;-61
2022/06/20 14:00:58;;;;;;;2.50;1.00;;;29.20;42.00;;;;;;4891661;28;45315;-60
2022/06/20 14:03:29;;;;;;;5.75;0.90;;;29.10;42.00;;;;;;4895861;28;44998;-59
2022/06/20 14:06:26;;;;;;;3.97;1.02;;;29.10;42.00;;;;;;4892887;28;44965;-59
2022/06/20 14:08:56;;;;;;;1.48;0.93;;;29.00;42.10;;;;;;4885160;28;45290;-61
2022/06/20 14:11:40;;;;;;;5.05;1.00;;;29.00;42.10;;;;;;4873171;28;45552;-60
2022/06/20 14:14:32;;;;;;;4.93;1.38;;;29.00;42.10;;;;;;4892603;28;45730;-60
2022/06/20 14:17:04;;;;;;;1.98;1.02;;;28.90;42.00;;;;;;4876189;28;46236;-60
2022/06/20 14:19:33;;;;;;;3.92;1.30;;;28.90;42.10;;;;;;4861998;28;45228;-60
2022/06/20 14:22:00;;;;;;;5.32;1.13;;;28.90;42.10;;;;;;4888372;28;45477;-60
2022/06/20 14:24:37;;;;;;;3.25;1.10;;;28.90;42.10;;;;;;4895215;28;45148;-58
2022/06/20 14:27:02;;;;;;;6.15;1.08;;;28.90;42.20;;;;;;4860872;29;46262;-61
2022/06/20 14:29:36;;;;;;;3.45;1.10;;;28.80;42.10;;;;;;4893195;28;45379;-61
2022/06/20 14:32:09;;;;;;;4.22;1.70;;;28.90;42.20;;;;;;4859392;29;46483;-59
2022/06/20 14:37:38;;;;;;;5.40;2.65;;;28.80;42.30;;;;;;4894060;28;45473;-59
2022/06/20 14:40:04;;;;;;;4.68;2.63;;;28.80;42.30;;;;;;4879439;28;45413;-61
2022/06/20 14:42:40;;;;;;;3.95;2.63;;;28.80;42.30;;;;;;4895880;28;45421;-60
2022/06/20 14:45:15;;;;;;;8.02;2.75;;;28.90;42.30;;;;;;4876404;28;45326;-60
2022/06/20 14:47:46;;;;;;;4.25;2.58;;;28.90;42.30;;;;;;4897326;28;45494;-60
2022/06/20 14:50:23;;;;;;;5.60;2.45;;;28.90;42.20;;;;;;4891662;28;45452;-61
2022/06/20 14:52:58;;;;;;;6.68;4.05;;;28.90;42.30;;;;;;4898381;28;44759;-62
2022/06/20 14:55:40;;;;;;;8.45;4.97;;;28.90;42.30;;;;;;4902734;28;45422;-60
2022/06/20 14:58:21;;;;;;;6.78;3.92;;;28.90;42.30;;;;;;4900808;28;46410;-60
2022/06/20 15:01:05;;;;;;;9.60;3.75;;;28.90;42.30;;;;;;4865161;28;45392;-59
2022/06/20 15:03:37;;;;;;;3.75;2.50;;;28.80;42.30;;;;;;4871139;28;44798;-61
2022/06/20 15:06:19;;;;;;;4.53;2.30;;;28.80;42.30;;;;;;4897680;28;45630;-59
2022/06/20 15:09:00;;;;;;;3.55;2.00;;;28.70;42.20;;;;;;4878065;28;45177;-60
2022/06/20 15:11:48;;;;;;;5.10;1.90;;;28.70;42.20;;;;;;4882299;28;44655;-61
2022/06/20 15:14:41;;;;;;;4.30;1.88;;;28.70;42.20;;;;;;4884921;28;44845;-60
2022/06/20 15:17:17;;;;;;;3.20;1.55;;;28.70;42.10;;;;;;4860792;28;46084;-61
2022/06/20 15:19:50;;;;;;;1.90;1.40;;;28.70;42.00;;;;;;4880982;29;45984;-61
2022/06/20 15:22:51;;;;;;;3.47;1.50;;;28.60;42.00;;;;;;4868219;28;44675;-62
2022/06/20 15:25:24;;;;;;;4.00;1.30;;;28.60;42.00;;;;;;4897242;28;45114;-61
2022/06/20 15:27:56;;;;;;;3.95;1.23;;;28.60;42.10;;;;;;4882574;29;47156;-60
2022/06/20 15:30:34;;;;;;;2.45;1.25;;;28.60;42.00;;;;;;4898582;28;47014;-62
2022/06/20 15:32:59;;;;;;;3.42;1.00;;;28.60;42.00;;;;;;4865596;29;44760;-61
2022/06/20 15:35:51;;;;;;;1.27;1.13;;;28.60;42.00;;;;;;4869409;28;45215;-61
2022/06/20 15:38:35;;;;;;;3.15;1.60;;;28.60;42.00;;;;;;4882249;29;44957;-62
2022/06/20 15:41:07;;;;;;;1.77;0.93;;;28.60;41.80;;;;;;4898905;28;45591;-61
2022/06/20 15:43:42;;;;;;;2.23;1.00;;;28.60;41.80;;;;;;4898151;28;45197;-60
2022/06/20 15:46:11;;;;;;;1.77;1.30;;;28.60;41.90;;;;;;4897915;28;45656;-61
2022/06/20 15:48:53;;;;;;;2.97;1.38;;;28.50;41.80;;;;;;4897282;28;45320;-62
2022/06/20 15:51:33;;;;;;;1.95;1.35;;;28.60;41.60;;;;;;4863366;29;44923;-59
2022/06/20 15:54:16;;;;;;;4.22;1.30;;;28.60;41.50;;;;;;4880267;28;45415;-60
2022/06/20 15:56:57;;;;;;;3.20;1.20;;;28.60;41.20;;;;;;4877377;29;45487;-62
2022/06/20 15:59:50;;;;;;;1.77;1.05;;;28.60;41.10;;;;;;4890238;28;46280;-61
2022/06/20 16:02:26;;;;;;;4.70;1.17;;;28.60;40.70;;;;;;4876428;28;46313;-61
2022/06/20 16:05:06;;;;;;;2.10;0.80;;;28.50;40.80;;;;;;4900102;28;45228;-61
2022/06/20 16:07:38;;;;;;;3.80;0.90;;;28.50;40.80;;;;;;4880977;28;45373;-62
2022/06/20 16:10:37;;;;;;;2.20;0.60;;;28.60;40.50;;;;;;4886572;28;45345;-62
2022/06/20 16:13:06;;;;;;;2.50;0.82;;;28.50;40.30;;;;;;4871870;28;46955;-60
2022/06/20 16:15:38;;;;;;;1.83;0.73;;;28.50;40.50;;;;;;4872694;28;45033;-63
2022/06/20 16:18:09;;;;;;;1.55;0.70;;;28.40;40.60;;;;;;4857709;28;45889;-60
2022/06/20 16:20:36;;;;;;;0.85;0.50;;;28.40;40.50;;;;;;4875292;28;44880;-60
2022/06/20 16:23:20;;;;;;;2.78;0.60;;;28.40;40.30;;;;;;4851287;28;45855;-62
2022/06/20 16:25:46;;;;;;;4.95;0.63;;;28.50;39.90;;;;;;4887231;28;45343;-61
2022/06/20 16:28:22;;;;;;;1.42;0.50;;;28.40;40.30;;;;;;4869623;28;46186;-61
2022/06/20 16:31:20;;;;;;;1.67;0.40;;;28.40;39.80;;;;;;4885122;28;48514;-61
2022/06/20 16:33:48;;;;;;;0.65;0.30;;;28.40;39.70;;;;;;4873956;28;46145;-62
2022/06/20 16:36:17;;;;;;;1.08;0.32;;;28.40;40.00;;;;;;4889963;28;45536;-62
2022/06/20 16:38:42;;;;;;;1.42;0.40;;;28.40;39.90;;;;;;4887648;28;45297;-61
2022/06/20 16:41:22;;;;;;;0.63;0.40;;;28.40;39.80;;;;;;4885521;28;45776;-61
2022/06/20 16:44:13;;;;;;;0.40;0.30;;;28.50;39.30;;;;;;4881958;28;45671;-61
2022/06/20 16:46:48;;;;;;;1.25;0.30;;;28.40;39.20;;;;;;4886894;28;46023;-62
2022/06/20 16:49:34;;;;;;;0.73;0.40;;;28.40;39.20;;;;;;4875597;28;44891;-59